sensor_id;sensor_type;location;lat;lon;timestamp;pressure;altitude;pressure_sealevel;temperature;humidity
59588;BME280;45412;54.472;18.464;2023-07-31T00:00:29;99117.56;;;15.07;100.00
59588;BME280;45412;54.472;18.464;2023-07-31T00:03:26;99115.71;;;15.09;100.00
59588;BME280;45412;54.472;18.464;2023-07-31T00:06:13;99115.02;;;15.08;100.00
59588;BME280;45412;54.472;18.464;2023-07-31T00:08:59;99112.73;;;15.07;100.00
59588;BME280;45412;54.472;18.464;2023-07-31T00:11:46;99108.38;;;15.09;100.00
59588;BME280;45412;54.472;18.464;2023-07-31T00:14:32;99103.51;;;15.10;100.00
59588;BME280;45412;54.472;18.464;2023-07-31T00:17:19;99097.83;;;15.09;100.00
59588;BME280;45412;54.472;18.464;2023-07-31T00:20:06;99088.27;;;15.10;100.00
59588;BME280;45412;54.472;18.464;2023-07-31T00:22:52;99080.23;;;15.09;100.00
59588;BME280;45412;54.472;18.464;2023-07-31T00:25:39;99077.54;;;15.07;100.00
59588;BME280;45412;54.472;18.464;2023-07-31T00:28:28;99071.73;;;15.02;100.00
59588;BME280;45412;54.472;18.464;2023-07-31T00:31:16;99072.45;;;14.95;100.00
59588;BME280;45412;54.472;18.464;2023-07-31T00:34:05;99073.10;;;14.89;100.00
59588;BME280;45412;54.472;18.464;2023-07-31T00:36:54;99071.14;;;14.85;100.00
59588;BME280;45412;54.472;18.464;2023-07-31T00:39:42;99074.27;;;14.77;100.00
59588;BME280;45412;54.472;18.464;2023-07-31T00:42:28;99075.10;;;14.68;100.00
59588;BME280;45412;54.472;18.464;2023-07-31T00:45:15;99069.02;;;14.61;100.00
59588;BME280;45412;54.472;18.464;2023-07-31T00:48:02;99063.02;;;14.54;100.00
59588;BME280;45412;54.472;18.464;2023-07-31T00:50:48;99061.49;;;14.48;100.00
59588;BME280;45412;54.472;18.464;2023-07-31T00:53:36;99062.95;;;14.45;100.00
59588;BME280;45412;54.472;18.464;2023-07-31T00:56:23;99062.64;;;14.41;100.00
59588;BME280;45412;54.472;18.464;2023-07-31T00:59:10;99062.41;;;14.38;100.00
59588;BME280;45412;54.472;18.464;2023-07-31T01:01:57;99057.95;;;14.35;100.00
59588;BME280;45412;54.472;18.464;2023-07-31T01:04:44;99054.54;;;14.32;100.00
59588;BME280;45412;54.472;18.464;2023-07-31T01:10:36;99052.17;;;14.26;100.00
59588;BME280;45412;54.472;18.464;2023-07-31T01:13:23;99057.54;;;14.23;100.00
59588;BME280;45412;54.472;18.464;2023-07-31T01:16:10;99053.55;;;14.21;100.00
59588;BME280;45412;54.472;18.464;2023-07-31T01:18:58;99057.63;;;14.20;100.00
59588;BME280;45412;54.472;18.464;2023-07-31T01:28:20;99065.95;;;14.04;100.00
59588;BME280;45412;54.472;18.464;2023-07-31T01:31:10;99070.89;;;13.98;100.00
59588;BME280;45412;54.472;18.464;2023-07-31T01:34:01;99074.06;;;13.93;100.00
59588;BME280;45412;54.472;18.464;2023-07-31T01:36:48;99071.75;;;13.91;100.00
59588;BME280;45412;54.472;18.464;2023-07-31T01:39:36;99071.63;;;13.89;100.00
59588;BME280;45412;54.472;18.464;2023-07-31T01:42:23;99063.82;;;13.89;100.00
59588;BME280;45412;54.472;18.464;2023-07-31T01:45:11;99065.59;;;13.87;100.00
59588;BME280;45412;54.472;18.464;2023-07-31T01:47:58;99064.40;;;13.87;100.00
59588;BME280;45412;54.472;18.464;2023-07-31T01:50:44;99064.96;;;13.85;100.00
59588;BME280;45412;54.472;18.464;2023-07-31T01:53:32;99066.92;;;13.84;100.00
59588;BME280;45412;54.472;18.464;2023-07-31T01:56:19;99061.73;;;13.80;100.00
59588;BME280;45412;54.472;18.464;2023-07-31T01:59:07;99059.77;;;13.77;100.00
59588;BME280;45412;54.472;18.464;2023-07-31T02:01:54;99055.15;;;13.73;100.00
59588;BME280;45412;54.472;18.464;2023-07-31T02:04:41;99052.84;;;13.72;100.00
59588;BME280;45412;54.472;18.464;2023-07-31T02:07:28;99054.70;;;13.68;100.00
59588;BME280;45412;54.472;18.464;2023-07-31T02:10:14;99055.46;;;13.64;100.00
59588;BME280;45412;54.472;18.464;2023-07-31T02:13:01;99057.89;;;13.61;100.00
59588;BME280;45412;54.472;18.464;2023-07-31T02:15:51;99060.16;;;13.56;100.00
59588;BME280;45412;54.472;18.464;2023-07-31T02:18:37;99061.18;;;13.52;100.00
59588;BME280;45412;54.472;18.464;2023-07-31T02:21:24;99060.10;;;13.49;100.00
59588;BME280;45412;54.472;18.464;2023-07-31T02:24:13;99065.12;;;13.44;100.00
59588;BME280;45412;54.472;18.464;2023-07-31T02:27:01;99062.58;;;13.42;100.00
59588;BME280;45412;54.472;18.464;2023-07-31T02:29:48;99067.63;;;13.39;100.00
59588;BME280;45412;54.472;18.464;2023-07-31T02:32:35;99069.66;;;13.37;100.00
59588;BME280;45412;54.472;18.464;2023-07-31T02:35:22;99069.14;;;13.34;100.00
59588;BME280;45412;54.472;18.464;2023-07-31T02:38:08;99067.40;;;13.27;100.00
59588;BME280;45412;54.472;18.464;2023-07-31T02:40:55;99067.46;;;13.25;100.00
59588;BME280;45412;54.472;18.464;2023-07-31T02:43:42;99066.77;;;13.23;100.00
59588;BME280;45412;54.472;18.464;2023-07-31T02:46:29;99068.11;;;13.21;100.00
59588;BME280;45412;54.472;18.464;2023-07-31T02:49:16;99071.05;;;13.18;100.00
59588;BME280;45412;54.472;18.464;2023-07-31T02:52:03;99072.88;;;13.16;100.00
59588;BME280;45412;54.472;18.464;2023-07-31T02:54:50;99068.23;;;13.15;100.00
59588;BME280;45412;54.472;18.464;2023-07-31T02:57:36;99071.12;;;13.13;100.00
59588;BME280;45412;54.472;18.464;2023-07-31T03:00:23;99073.15;;;13.12;100.00
59588;BME280;45412;54.472;18.464;2023-07-31T03:03:10;99075.23;;;13.10;100.00
59588;BME280;45412;54.472;18.464;2023-07-31T03:05:57;99081.15;;;13.10;100.00
59588;BME280;45412;54.472;18.464;2023-07-31T03:08:45;99078.28;;;13.09;100.00
59588;BME280;45412;54.472;18.464;2023-07-31T03:11:32;99082.09;;;13.08;100.00
59588;BME280;45412;54.472;18.464;2023-07-31T03:14:19;99077.34;;;13.07;100.00
59588;BME280;45412;54.472;18.464;2023-07-31T03:17:05;99081.70;;;13.06;100.00
59588;BME280;45412;54.472;18.464;2023-07-31T03:19:52;99078.46;;;13.05;100.00
59588;BME280;45412;54.472;18.464;2023-07-31T03:22:41;99080.20;;;13.05;100.00
59588;BME280;45412;54.472;18.464;2023-07-31T03:25:28;99083.16;;;13.06;100.00
59588;BME280;45412;54.472;18.464;2023-07-31T03:28:16;99081.21;;;13.08;100.00
59588;BME280;45412;54.472;18.464;2023-07-31T03:31:05;99081.73;;;13.09;100.00
59588;BME280;45412;54.472;18.464;2023-07-31T03:33:51;99086.76;;;13.13;100.00
59588;BME280;45412;54.472;18.464;2023-07-31T03:36:38;99093.77;;;13.16;100.00
59588;BME280;45412;54.472;18.464;2023-07-31T03:39:26;99098.00;;;13.18;100.00
59588;BME280;45412;54.472;18.464;2023-07-31T03:42:13;99101.54;;;13.21;100.00
59588;BME280;45412;54.472;18.464;2023-07-31T03:45:00;99096.52;;;13.24;100.00
59588;BME280;45412;54.472;18.464;2023-07-31T03:47:47;99094.00;;;13.27;100.00
59588;BME280;45412;54.472;18.464;2023-07-31T03:50:34;99092.63;;;13.30;100.00
59588;BME280;45412;54.472;18.464;2023-07-31T03:53:20;99098.70;;;13.33;100.00
59588;BME280;45412;54.472;18.464;2023-07-31T03:56:07;99106.40;;;13.37;100.00
59588;BME280;45412;54.472;18.464;2023-07-31T03:58:54;99107.52;;;13.41;100.00
59588;BME280;45412;54.472;18.464;2023-07-31T04:01:42;99108.40;;;13.45;100.00
59588;BME280;45412;54.472;18.464;2023-07-31T04:04:31;99107.98;;;13.49;100.00
59588;BME280;45412;54.472;18.464;2023-07-31T04:07:21;99104.86;;;13.51;100.00
59588;BME280;45412;54.472;18.464;2023-07-31T04:10:08;99106.36;;;13.54;100.00
59588;BME280;45412;54.472;18.464;2023-07-31T04:12:59;99107.64;;;13.59;100.00
59588;BME280;45412;54.472;18.464;2023-07-31T04:15:50;99108.42;;;13.63;100.00
59588;BME280;45412;54.472;18.464;2023-07-31T04:18:37;99104.33;;;13.69;100.00
59588;BME280;45412;54.472;18.464;2023-07-31T04:21:26;99105.82;;;13.73;100.00
59588;BME280;45412;54.472;18.464;2023-07-31T04:24:13;99107.70;;;13.77;100.00
59588;BME280;45412;54.472;18.464;2023-07-31T04:27:00;99108.81;;;13.82;100.00
59588;BME280;45412;54.472;18.464;2023-07-31T04:29:46;99103.90;;;13.88;100.00
59588;BME280;45412;54.472;18.464;2023-07-31T04:32:33;99104.39;;;13.96;100.00
59588;BME280;45412;54.472;18.464;2023-07-31T04:35:21;99106.41;;;14.06;100.00
59588;BME280;45412;54.472;18.464;2023-07-31T04:38:09;99108.34;;;14.16;100.00
59588;BME280;45412;54.472;18.464;2023-07-31T04:41:06;99105.86;;;14.21;100.00
59588;BME280;45412;54.472;18.464;2023-07-31T04:44:04;99111.02;;;14.26;100.00
59588;BME280;45412;54.472;18.464;2023-07-31T04:46:54;99102.86;;;14.27;100.00
59588;BME280;45412;54.472;18.464;2023-07-31T04:49:42;99105.87;;;14.31;100.00
59588;BME280;45412;54.472;18.464;2023-07-31T04:52:28;99101.95;;;14.34;100.00
59588;BME280;45412;54.472;18.464;2023-07-31T04:55:16;99103.42;;;14.36;100.00
59588;BME280;45412;54.472;18.464;2023-07-31T04:58:03;99104.02;;;14.41;100.00
59588;BME280;45412;54.472;18.464;2023-07-31T05:00:49;99104.73;;;14.43;100.00
59588;BME280;45412;54.472;18.464;2023-07-31T05:03:36;99104.36;;;14.45;100.00
59588;BME280;45412;54.472;18.464;2023-07-31T05:06:22;99107.88;;;14.47;100.00
59588;BME280;45412;54.472;18.464;2023-07-31T05:09:09;99107.63;;;14.51;100.00
59588;BME280;45412;54.472;18.464;2023-07-31T05:11:59;99102.25;;;14.45;100.00
59588;BME280;45412;54.472;18.464;2023-07-31T05:14:46;99110.95;;;14.53;100.00
59588;BME280;45412;54.472;18.464;2023-07-31T05:17:33;99109.14;;;14.57;100.00
59588;BME280;45412;54.472;18.464;2023-07-31T05:20:21;99112.08;;;14.86;100.00
59588;BME280;45412;54.472;18.464;2023-07-31T05:23:08;99112.46;;;15.68;99.98
59588;BME280;45412;54.472;18.464;2023-07-31T05:26:04;99112.31;;;17.16;94.26
59588;BME280;45412;54.472;18.464;2023-07-31T05:28:56;99108.86;;;18.68;85.84
59588;BME280;45412;54.472;18.464;2023-07-31T05:31:42;99100.67;;;19.98;79.53
59588;BME280;45412;54.472;18.464;2023-07-31T05:35:01;99100.10;;;21.15;73.08
59588;BME280;45412;54.472;18.464;2023-07-31T05:37:55;99095.88;;;22.44;67.75
59588;BME280;45412;54.472;18.464;2023-07-31T05:41:05;99099.80;;;23.29;61.62
59588;BME280;45412;54.472;18.464;2023-07-31T05:43:56;99095.81;;;24.05;59.45
59588;BME280;45412;54.472;18.464;2023-07-31T05:46:58;99090.20;;;24.67;55.01
59588;BME280;45412;54.472;18.464;2023-07-31T05:49:45;99090.20;;;25.02;53.02
59588;BME280;45412;54.472;18.464;2023-07-31T05:52:36;99090.78;;;25.54;52.02
59588;BME280;45412;54.472;18.464;2023-07-31T05:55:50;99089.46;;;26.13;49.04
59588;BME280;45412;54.472;18.464;2023-07-31T05:58:45;99091.40;;;26.68;48.49
59588;BME280;45412;54.472;18.464;2023-07-31T06:01:44;99093.61;;;27.30;46.88
59588;BME280;45412;54.472;18.464;2023-07-31T06:04:50;99094.50;;;27.79;44.35
59588;BME280;45412;54.472;18.464;2023-07-31T06:08:19;99085.10;;;28.06;43.13
59588;BME280;45412;54.472;18.464;2023-07-31T06:11:21;99084.17;;;28.45;41.76
59588;BME280;45412;54.472;18.464;2023-07-31T06:14:09;99087.18;;;28.70;40.73
59588;BME280;45412;54.472;18.464;2023-07-31T06:17:01;99089.83;;;29.15;40.38
59588;BME280;45412;54.472;18.464;2023-07-31T06:19:51;99090.25;;;29.33;38.59
59588;BME280;45412;54.472;18.464;2023-07-31T06:22:38;99086.52;;;29.53;38.78
59588;BME280;45412;54.472;18.464;2023-07-31T06:25:25;99090.83;;;29.50;38.47
59588;BME280;45412;54.472;18.464;2023-07-31T06:28:12;99090.23;;;29.66;38.22
59588;BME280;45412;54.472;18.464;2023-07-31T06:31:03;99099.88;;;29.96;37.67
59588;BME280;45412;54.472;18.464;2023-07-31T06:33:52;99099.70;;;30.15;37.51
59588;BME280;45412;54.472;18.464;2023-07-31T06:36:38;99099.55;;;30.20;36.04
59588;BME280;45412;54.472;18.464;2023-07-31T06:39:26;99097.63;;;30.29;35.71
59588;BME280;45412;54.472;18.464;2023-07-31T06:42:12;99099.20;;;30.47;35.29
59588;BME280;45412;54.472;18.464;2023-07-31T06:44:59;99098.77;;;30.53;35.28
59588;BME280;45412;54.472;18.464;2023-07-31T06:47:46;99098.95;;;30.87;34.77
59588;BME280;45412;54.472;18.464;2023-07-31T06:50:33;99099.75;;;31.33;33.93
59588;BME280;45412;54.472;18.464;2023-07-31T06:53:20;99105.10;;;31.60;33.44
59588;BME280;45412;54.472;18.464;2023-07-31T06:56:09;99108.30;;;31.84;33.50
59588;BME280;45412;54.472;18.464;2023-07-31T06:58:56;99105.45;;;31.81;32.38
59588;BME280;45412;54.472;18.464;2023-07-31T07:01:45;99103.88;;;31.67;32.29
59588;BME280;45412;54.472;18.464;2023-07-31T07:04:35;99104.42;;;31.77;32.30
59588;BME280;45412;54.472;18.464;2023-07-31T07:07:23;99104.38;;;32.17;31.91
59588;BME280;45412;54.472;18.464;2023-07-31T07:10:10;99102.85;;;32.51;31.27
59588;BME280;45412;54.472;18.464;2023-07-31T07:12:59;99098.73;;;32.71;30.52
59588;BME280;45412;54.472;18.464;2023-07-31T07:15:51;99101.24;;;32.54;29.75
59588;BME280;45412;54.472;18.464;2023-07-31T07:18:40;99093.80;;;32.86;30.03
59588;BME280;45412;54.472;18.464;2023-07-31T07:21:48;99095.69;;;32.80;29.63
59588;BME280;45412;54.472;18.464;2023-07-31T07:24:35;99094.86;;;32.84;29.11
59588;BME280;45412;54.472;18.464;2023-07-31T07:27:25;99091.15;;;32.87;29.21
59588;BME280;45412;54.472;18.464;2023-07-31T07:30:14;99091.41;;;32.59;28.71
59588;BME280;45412;54.472;18.464;2023-07-31T07:33:02;99095.27;;;31.99;30.07
59588;BME280;45412;54.472;18.464;2023-07-31T07:35:50;99093.47;;;31.65;29.95
59588;BME280;45412;54.472;18.464;2023-07-31T07:38:38;99089.60;;;30.94;30.45
59588;BME280;45412;54.472;18.464;2023-07-31T07:41:27;99084.81;;;30.54;31.21
59588;BME280;45412;54.472;18.464;2023-07-31T07:44:14;99086.11;;;30.80;30.80
59588;BME280;45412;54.472;18.464;2023-07-31T07:47:01;99079.58;;;31.11;30.10
59588;BME280;45412;54.472;18.464;2023-07-31T07:49:48;99076.64;;;31.76;29.26
59588;BME280;45412;54.472;18.464;2023-07-31T07:52:39;99079.73;;;32.29;28.97
59588;BME280;45412;54.472;18.464;2023-07-31T07:55:26;99076.80;;;32.52;28.00
59588;BME280;45412;54.472;18.464;2023-07-31T07:58:14;99081.98;;;32.39;28.42
59588;BME280;45412;54.472;18.464;2023-07-31T08:01:01;99075.98;;;32.58;28.55
59588;BME280;45412;54.472;18.464;2023-07-31T08:03:49;99068.93;;;32.88;27.93
59588;BME280;45412;54.472;18.464;2023-07-31T08:06:37;99073.02;;;33.24;27.65
59588;BME280;45412;54.472;18.464;2023-07-31T08:09:24;99070.83;;;32.95;27.67
59588;BME280;45412;54.472;18.464;2023-07-31T08:12:13;99068.16;;;32.57;27.95
59588;BME280;45412;54.472;18.464;2023-07-31T08:15:07;99066.73;;;31.94;28.50
59588;BME280;45412;54.472;18.464;2023-07-31T08:17:54;99068.95;;;31.25;29.32
59588;BME280;45412;54.472;18.464;2023-07-31T08:20:42;99073.81;;;31.58;29.42
59588;BME280;45412;54.472;18.464;2023-07-31T08:23:29;99068.73;;;31.76;28.81
59588;BME280;45412;54.472;18.464;2023-07-31T08:26:17;99064.23;;;31.16;29.42
59588;BME280;45412;54.472;18.464;2023-07-31T08:29:04;99063.02;;;31.20;29.58
59588;BME280;45412;54.472;18.464;2023-07-31T08:31:52;99065.27;;;30.57;30.21
59588;BME280;45412;54.472;18.464;2023-07-31T08:34:40;99060.50;;;30.86;30.16
59588;BME280;45412;54.472;18.464;2023-07-31T08:37:28;99061.59;;;30.40;30.19
59588;BME280;45412;54.472;18.464;2023-07-31T08:40:14;99061.20;;;30.36;30.59
59588;BME280;45412;54.472;18.464;2023-07-31T08:43:01;99061.91;;;30.47;29.77
59588;BME280;45412;54.472;18.464;2023-07-31T08:45:50;99060.30;;;29.80;30.06
59588;BME280;45412;54.472;18.464;2023-07-31T08:48:37;99055.30;;;30.10;29.95
59588;BME280;45412;54.472;18.464;2023-07-31T08:51:25;99056.23;;;31.09;29.31
59588;BME280;45412;54.472;18.464;2023-07-31T08:54:12;99058.64;;;31.80;28.45
59588;BME280;45412;54.472;18.464;2023-07-31T08:57:02;99056.94;;;32.30;27.46
59588;BME280;45412;54.472;18.464;2023-07-31T08:59:52;99060.52;;;32.07;27.42
59588;BME280;45412;54.472;18.464;2023-07-31T09:03:09;99057.93;;;31.06;28.06
59588;BME280;45412;54.472;18.464;2023-07-31T09:05:56;99059.52;;;29.61;30.02
59588;BME280;45412;54.472;18.464;2023-07-31T09:08:43;99059.09;;;30.10;29.96
59588;BME280;45412;54.472;18.464;2023-07-31T09:11:30;99050.12;;;30.94;29.08
59588;BME280;45412;54.472;18.464;2023-07-31T09:14:17;99045.14;;;30.84;29.03
59588;BME280;45412;54.472;18.464;2023-07-31T09:17:10;99042.34;;;31.48;28.53
59588;BME280;45412;54.472;18.464;2023-07-31T09:19:56;99046.95;;;32.64;27.38
59588;BME280;45412;54.472;18.464;2023-07-31T09:22:48;99043.74;;;32.34;25.97
59588;BME280;45412;54.472;18.464;2023-07-31T09:25:37;99047.19;;;31.73;26.23
59588;BME280;45412;54.472;18.464;2023-07-31T09:28:31;99043.27;;;31.27;26.14
59588;BME280;45412;54.472;18.464;2023-07-31T09:31:41;99036.50;;;30.30;27.47
59588;BME280;45412;54.472;18.464;2023-07-31T09:34:40;99035.66;;;30.67;27.91
59588;BME280;45412;54.472;18.464;2023-07-31T09:37:29;99034.09;;;30.87;27.93
59588;BME280;45412;54.472;18.464;2023-07-31T09:40:31;99042.61;;;31.11;27.54
59588;BME280;45412;54.472;18.464;2023-07-31T09:43:20;99039.20;;;30.60;28.54
59588;BME280;45412;54.472;18.464;2023-07-31T09:46:13;99033.09;;;30.92;28.05
59588;BME280;45412;54.472;18.464;2023-07-31T09:49:08;99035.45;;;30.63;27.83
59588;BME280;45412;54.472;18.464;2023-07-31T09:51:56;99027.45;;;29.18;28.72
59588;BME280;45412;54.472;18.464;2023-07-31T09:54:47;99027.04;;;28.51;29.86
59588;BME280;45412;54.472;18.464;2023-07-31T09:57:40;99023.23;;;28.31;31.16
59588;BME280;45412;54.472;18.464;2023-07-31T10:00:32;99020.66;;;27.81;31.99
59588;BME280;45412;54.472;18.464;2023-07-31T10:03:19;99018.27;;;27.76;32.90
59588;BME280;45412;54.472;18.464;2023-07-31T10:06:09;99019.43;;;27.72;31.88
59588;BME280;45412;54.472;18.464;2023-07-31T10:08:56;99023.36;;;27.47;31.95
59588;BME280;45412;54.472;18.464;2023-07-31T10:11:55;99015.65;;;27.11;32.08
59588;BME280;45412;54.472;18.464;2023-07-31T10:14:44;99007.38;;;27.44;32.77
59588;BME280;45412;54.472;18.464;2023-07-31T10:17:35;99002.02;;;27.91;31.64
59588;BME280;45412;54.472;18.464;2023-07-31T10:20:23;98998.46;;;27.96;31.61
59588;BME280;45412;54.472;18.464;2023-07-31T10:23:12;98991.52;;;28.69;31.26
59588;BME280;45412;54.472;18.464;2023-07-31T10:26:00;98999.17;;;28.73;30.03
59588;BME280;45412;54.472;18.464;2023-07-31T10:28:48;98994.66;;;28.78;30.52
59588;BME280;45412;54.472;18.464;2023-07-31T10:31:35;98993.13;;;29.62;29.39
59588;BME280;45412;54.472;18.464;2023-07-31T10:34:24;98987.83;;;30.03;29.04
59588;BME280;45412;54.472;18.464;2023-07-31T10:37:29;98989.71;;;30.93;27.96
59588;BME280;45412;54.472;18.464;2023-07-31T10:40:19;98991.21;;;31.69;27.64
59588;BME280;45412;54.472;18.464;2023-07-31T10:43:08;98982.34;;;32.32;26.19
59588;BME280;45412;54.472;18.464;2023-07-31T10:46:00;98984.54;;;31.97;26.10
59588;BME280;45412;54.472;18.464;2023-07-31T10:49:04;98982.51;;;31.74;25.47
59588;BME280;45412;54.472;18.464;2023-07-31T10:51:51;98987.70;;;30.79;26.37
59588;BME280;45412;54.472;18.464;2023-07-31T10:54:39;98985.92;;;29.52;28.27
59588;BME280;45412;54.472;18.464;2023-07-31T10:57:35;98981.05;;;29.70;28.70
59588;BME280;45412;54.472;18.464;2023-07-31T11:00:29;98980.52;;;30.28;27.37
59588;BME280;45412;54.472;18.464;2023-07-31T11:03:19;98977.34;;;30.93;26.50
59588;BME280;45412;54.472;18.464;2023-07-31T11:06:13;98975.80;;;30.95;26.42
59588;BME280;45412;54.472;18.464;2023-07-31T11:09:04;98978.95;;;31.01;26.45
59588;BME280;45412;54.472;18.464;2023-07-31T11:11:54;98973.33;;;31.72;25.31
59588;BME280;45412;54.472;18.464;2023-07-31T11:14:41;98963.63;;;30.32;26.31
59588;BME280;45412;54.472;18.464;2023-07-31T11:17:32;98962.51;;;29.43;28.23
59588;BME280;45412;54.472;18.464;2023-07-31T11:20:23;98964.96;;;29.23;28.73
59588;BME280;45412;54.472;18.464;2023-07-31T11:23:11;98959.27;;;29.08;28.57
59588;BME280;45412;54.472;18.464;2023-07-31T11:26:01;98955.46;;;28.78;29.25
59588;BME280;45412;54.472;18.464;2023-07-31T11:28:51;98961.73;;;28.58;30.16
59588;BME280;45412;54.472;18.464;2023-07-31T11:31:43;98966.66;;;27.99;31.01
59588;BME280;45412;54.472;18.464;2023-07-31T11:34:30;98969.50;;;27.24;32.46
59588;BME280;45412;54.472;18.464;2023-07-31T11:37:19;98961.11;;;26.74;33.49
59588;BME280;45412;54.472;18.464;2023-07-31T11:40:08;98959.70;;;26.60;34.26
59588;BME280;45412;54.472;18.464;2023-07-31T11:42:57;98962.06;;;26.87;34.11
59588;BME280;45412;54.472;18.464;2023-07-31T11:45:57;98955.75;;;27.02;33.49
59588;BME280;45412;54.472;18.464;2023-07-31T11:48:43;98953.64;;;27.23;33.38
59588;BME280;45412;54.472;18.464;2023-07-31T11:51:30;98957.44;;;27.11;33.68
59588;BME280;45412;54.472;18.464;2023-07-31T11:54:17;98957.79;;;26.94;33.97
59588;BME280;45412;54.472;18.464;2023-07-31T11:57:04;98958.20;;;26.65;34.04
59588;BME280;45412;54.472;18.464;2023-07-31T11:59:52;98957.48;;;26.31;34.74
59588;BME280;45412;54.472;18.464;2023-07-31T12:02:40;98955.19;;;26.06;35.55
59588;BME280;45412;54.472;18.464;2023-07-31T12:05:28;98953.18;;;25.69;36.32
59588;BME280;45412;54.472;18.464;2023-07-31T12:08:16;98952.05;;;25.29;37.31
59588;BME280;45412;54.472;18.464;2023-07-31T12:11:05;98956.21;;;24.97;38.61
59588;BME280;45412;54.472;18.464;2023-07-31T12:13:53;98957.07;;;24.73;39.49
59588;BME280;45412;54.472;18.464;2023-07-31T12:16:40;98951.77;;;24.44;39.55
59588;BME280;45412;54.472;18.464;2023-07-31T12:19:28;98950.08;;;24.01;39.80
59588;BME280;45412;54.472;18.464;2023-07-31T12:22:19;98947.20;;;23.72;40.58
59588;BME280;45412;54.472;18.464;2023-07-31T12:25:07;98949.08;;;23.46;41.20
59588;BME280;45412;54.472;18.464;2023-07-31T12:28:05;98942.21;;;23.62;41.73
59588;BME280;45412;54.472;18.464;2023-07-31T12:30:59;98947.92;;;24.09;41.41
59588;BME280;45412;54.472;18.464;2023-07-31T12:33:48;98950.48;;;24.39;41.17
59588;BME280;45412;54.472;18.464;2023-07-31T12:36:36;98945.90;;;24.58;40.93
59588;BME280;45412;54.472;18.464;2023-07-31T12:39:24;98945.34;;;24.64;40.80
59588;BME280;45412;54.472;18.464;2023-07-31T12:42:10;98946.59;;;24.19;41.75
59588;BME280;45412;54.472;18.464;2023-07-31T12:44:58;98939.83;;;24.04;42.29
59588;BME280;45412;54.472;18.464;2023-07-31T12:47:46;98942.41;;;24.10;42.55
59588;BME280;45412;54.472;18.464;2023-07-31T12:50:35;98935.54;;;24.13;42.48
59588;BME280;45412;54.472;18.464;2023-07-31T12:53:27;98930.56;;;24.10;42.50
59588;BME280;45412;54.472;18.464;2023-07-31T12:56:13;98931.14;;;23.96;43.06
59588;BME280;45412;54.472;18.464;2023-07-31T12:59:00;98925.36;;;23.66;43.42
59588;BME280;45412;54.472;18.464;2023-07-31T13:01:48;98923.00;;;23.54;44.04
59588;BME280;45412;54.472;18.464;2023-07-31T13:04:35;98924.32;;;23.52;44.39
59588;BME280;45412;54.472;18.464;2023-07-31T13:07:22;98923.36;;;23.22;44.69
59588;BME280;45412;54.472;18.464;2023-07-31T13:10:33;98914.73;;;23.01;45.54
59588;BME280;45412;54.472;18.464;2023-07-31T13:13:20;98912.35;;;22.80;46.53
59588;BME280;45412;54.472;18.464;2023-07-31T13:16:07;98924.94;;;22.56;47.58
59588;BME280;45412;54.472;18.464;2023-07-31T13:18:55;98912.69;;;22.32;48.50
59588;BME280;45412;54.472;18.464;2023-07-31T13:21:42;98913.61;;;22.13;49.62
59588;BME280;45412;54.472;18.464;2023-07-31T13:24:29;98917.23;;;21.81;50.57
59588;BME280;45412;54.472;18.464;2023-07-31T13:27:15;98913.98;;;21.43;52.30
59588;BME280;45412;54.472;18.464;2023-07-31T13:30:08;98907.54;;;21.39;53.15
59588;BME280;45412;54.472;18.464;2023-07-31T13:32:55;98903.67;;;21.30;53.55
59588;BME280;45412;54.472;18.464;2023-07-31T13:35:47;98899.94;;;21.16;54.13
59588;BME280;45412;54.472;18.464;2023-07-31T13:38:34;98898.52;;;21.20;54.35
59588;BME280;45412;54.472;18.464;2023-07-31T13:41:22;98900.80;;;21.20;54.40
59588;BME280;45412;54.472;18.464;2023-07-31T13:44:11;98895.46;;;21.19;54.16
59588;BME280;45412;54.472;18.464;2023-07-31T13:46:58;98896.20;;;21.35;53.94
59588;BME280;45412;54.472;18.464;2023-07-31T13:49:44;98901.23;;;21.53;53.73
59588;BME280;45412;54.472;18.464;2023-07-31T13:52:32;98892.95;;;21.57;53.19
59588;BME280;45412;54.472;18.464;2023-07-31T13:55:21;98892.17;;;21.66;52.87
59588;BME280;45412;54.472;18.464;2023-07-31T13:58:07;98884.40;;;21.76;53.04
59588;BME280;45412;54.472;18.464;2023-07-31T14:00:56;98884.58;;;21.75;52.69
59588;BME280;45412;54.472;18.464;2023-07-31T14:03:44;98885.95;;;21.59;53.17
59588;BME280;45412;54.472;18.464;2023-07-31T14:06:52;98878.75;;;21.50;53.65
59588;BME280;45412;54.472;18.464;2023-07-31T14:09:46;98878.77;;;21.47;54.14
59588;BME280;45412;54.472;18.464;2023-07-31T14:12:34;98878.98;;;21.38;54.22
59588;BME280;45412;54.472;18.464;2023-07-31T14:15:28;98869.00;;;21.13;54.93
59588;BME280;45412;54.472;18.464;2023-07-31T14:18:17;98869.56;;;20.99;55.57
59588;BME280;45412;54.472;18.464;2023-07-31T14:21:12;98867.80;;;21.03;55.84
59588;BME280;45412;54.472;18.464;2023-07-31T14:24:00;98868.86;;;20.98;55.90
59588;BME280;45412;54.472;18.464;2023-07-31T14:26:47;98866.18;;;21.04;56.45
59588;BME280;45412;54.472;18.464;2023-07-31T14:29:34;98865.91;;;21.22;56.50
59588;BME280;45412;54.472;18.464;2023-07-31T14:32:22;98865.16;;;21.32;55.97
59588;BME280;45412;54.472;18.464;2023-07-31T14:35:11;98864.67;;;21.32;55.53
59588;BME280;45412;54.472;18.464;2023-07-31T14:37:59;98863.08;;;21.47;55.32
59588;BME280;45412;54.472;18.464;2023-07-31T14:40:45;98863.37;;;21.60;55.21
59588;BME280;45412;54.472;18.464;2023-07-31T14:43:33;98863.13;;;21.45;55.47
59588;BME280;45412;54.472;18.464;2023-07-31T14:46:21;98859.82;;;21.42;55.19
59588;BME280;45412;54.472;18.464;2023-07-31T14:49:08;98861.95;;;21.33;55.19